Terminal Aerodrome Forecast
Issued by NWS

Home | Current Version | Previous Version | Text Only | Print | Product List | Glossary On
Versions: 1 2 3 4 5 6 7 8 9 10 11 12 13 14 15
000
FTUS44 KCRP 302326
TAFALI
TAF
KALI 302326Z 3100/3124 14015G25KT P6SM SCT250
     FM310200 15012KT P6SM SCT250
     FM311000 16004KT P6SM SCT015 BKN250
      TEMPO 3110/3113 5SM BR
     FM311500 17008G18KT P6SM SCT025
     FM312200 14018G25KT P6SM SCT040=

USA.gov is the U.S. government's official web portal to all federal, state and local government web resources and services.